sensor_id;sensor_type;location;lat;lon;timestamp;temperature;humidity
63289;DHT22;49412;48.162;-1.978;2023-04-03T00:00:25;6.80;32.60
63289;DHT22;49412;48.162;-1.978;2023-04-03T00:02:51;6.80;38.10
63289;DHT22;49412;48.162;-1.978;2023-04-03T00:05:16;6.70;42.60
63289;DHT22;49412;48.162;-1.978;2023-04-03T00:07:42;6.60;46.90
63289;DHT22;49412;48.162;-1.978;2023-04-03T00:10:08;6.80;39.40
63289;DHT22;49412;48.162;-1.978;2023-04-03T00:12:33;6.80;29.40
63289;DHT22;49412;48.162;-1.978;2023-04-03T00:14:59;6.80;29.50
63289;DHT22;49412;48.162;-1.978;2023-04-03T00:17:25;6.90;27.80
63289;DHT22;49412;48.162;-1.978;2023-04-03T00:19:50;6.90;24.60
63289;DHT22;49412;48.162;-1.978;2023-04-03T00:22:16;6.90;25.50
63289;DHT22;49412;48.162;-1.978;2023-04-03T00:24:41;6.90;26.40
63289;DHT22;49412;48.162;-1.978;2023-04-03T00:27:07;6.90;26.40
63289;DHT22;49412;48.162;-1.978;2023-04-03T00:29:33;6.80;28.90
63289;DHT22;49412;48.162;-1.978;2023-04-03T00:31:58;6.60;36.00
63289;DHT22;49412;48.162;-1.978;2023-04-03T00:34:24;6.60;36.10
63289;DHT22;49412;48.162;-1.978;2023-04-03T00:36:49;6.70;30.20
63289;DHT22;49412;48.162;-1.978;2023-04-03T00:39:16;6.70;23.80
63289;DHT22;49412;48.162;-1.978;2023-04-03T00:41:42;6.70;19.30
63289;DHT22;49412;48.162;-1.978;2023-04-03T00:46:51;6.50;13.60
63289;DHT22;49412;48.162;-1.978;2023-04-03T00:49:17;6.40;12.40
63289;DHT22;49412;48.162;-1.978;2023-04-03T00:51:42;6.20;13.40
63289;DHT22;49412;48.162;-1.978;2023-04-03T00:54:08;6.10;16.60
63289;DHT22;49412;48.162;-1.978;2023-04-03T00:56:34;5.80;25.90
63289;DHT22;49412;48.162;-1.978;2023-04-03T01:01:27;5.90;30.90
63289;DHT22;49412;48.162;-1.978;2023-04-03T01:03:53;5.80;35.00
63289;DHT22;49412;48.162;-1.978;2023-04-03T01:06:26;5.70;36.20
63289;DHT22;49412;48.162;-1.978;2023-04-03T01:08:52;5.80;36.80
63289;DHT22;49412;48.162;-1.978;2023-04-03T01:11:18;5.90;31.20
63289;DHT22;49412;48.162;-1.978;2023-04-03T01:13:45;5.80;34.30
63289;DHT22;49412;48.162;-1.978;2023-04-03T01:16:11;5.70;41.40
63289;DHT22;49412;48.162;-1.978;2023-04-03T01:18:37;5.60;47.20
63289;DHT22;49412;48.162;-1.978;2023-04-03T01:26:01;5.60;46.40
63289;DHT22;49412;48.162;-1.978;2023-04-03T01:28:28;5.60;44.30
63289;DHT22;49412;48.162;-1.978;2023-04-03T01:33:40;5.70;45.10
63289;DHT22;49412;48.162;-1.978;2023-04-03T01:36:05;5.70;38.60
63289;DHT22;49412;48.162;-1.978;2023-04-03T01:38:31;5.70;32.70
63289;DHT22;49412;48.162;-1.978;2023-04-03T01:40:57;5.80;26.70
63289;DHT22;49412;48.162;-1.978;2023-04-03T01:43:22;5.70;22.30
63289;DHT22;49412;48.162;-1.978;2023-04-03T01:45:48;5.60;21.30
63289;DHT22;49412;48.162;-1.978;2023-04-03T01:48:18;5.50;22.20
63289;DHT22;49412;48.162;-1.978;2023-04-03T01:50:43;5.40;27.70
63289;DHT22;49412;48.162;-1.978;2023-04-03T01:53:09;5.40;29.20
63289;DHT22;49412;48.162;-1.978;2023-04-03T01:55:34;5.30;29.80
63289;DHT22;49412;48.162;-1.978;2023-04-03T01:58:00;5.20;33.90
63289;DHT22;49412;48.162;-1.978;2023-04-03T02:00:25;5.10;40.80
63289;DHT22;49412;48.162;-1.978;2023-04-03T02:02:52;5.10;38.80
63289;DHT22;49412;48.162;-1.978;2023-04-03T02:05:17;5.10;40.70
63289;DHT22;49412;48.162;-1.978;2023-04-03T02:07:43;5.10;42.20
63289;DHT22;49412;48.162;-1.978;2023-04-03T02:10:08;5.20;41.40
63289;DHT22;49412;48.162;-1.978;2023-04-03T02:12:34;5.30;36.40
63289;DHT22;49412;48.162;-1.978;2023-04-03T02:15:00;5.30;34.00
63289;DHT22;49412;48.162;-1.978;2023-04-03T02:17:26;5.30;32.40
63289;DHT22;49412;48.162;-1.978;2023-04-03T02:19:51;5.40;30.60
63289;DHT22;49412;48.162;-1.978;2023-04-03T02:22:17;5.40;29.70
63289;DHT22;49412;48.162;-1.978;2023-04-03T02:24:43;5.30;31.70
63289;DHT22;49412;48.162;-1.978;2023-04-03T02:27:08;5.30;31.90
63289;DHT22;49412;48.162;-1.978;2023-04-03T02:29:34;5.20;32.00
63289;DHT22;49412;48.162;-1.978;2023-04-03T02:31:59;5.30;31.80
63289;DHT22;49412;48.162;-1.978;2023-04-03T02:34:25;5.30;32.70
63289;DHT22;49412;48.162;-1.978;2023-04-03T02:36:50;5.10;39.60
63289;DHT22;49412;48.162;-1.978;2023-04-03T02:39:16;5.00;46.60
63289;DHT22;49412;48.162;-1.978;2023-04-03T02:41:42;5.00;46.50
63289;DHT22;49412;48.162;-1.978;2023-04-03T02:44:08;5.10;46.70
63289;DHT22;49412;48.162;-1.978;2023-04-03T02:46:34;5.00;30.30
63289;DHT22;49412;48.162;-1.978;2023-04-03T02:49:00;4.90;34.30
63289;DHT22;49412;48.162;-1.978;2023-04-03T02:51:26;4.70;29.10
63289;DHT22;49412;48.162;-1.978;2023-04-03T02:53:51;4.60;38.10
63289;DHT22;49412;48.162;-1.978;2023-04-03T02:56:17;4.70;43.10
63289;DHT22;49412;48.162;-1.978;2023-04-03T02:58:43;4.80;42.00
63289;DHT22;49412;48.162;-1.978;2023-04-03T03:01:09;4.90;45.80
63289;DHT22;49412;48.162;-1.978;2023-04-03T03:03:35;5.00;42.60
63289;DHT22;49412;48.162;-1.978;2023-04-03T03:06:04;5.10;41.10
63289;DHT22;49412;48.162;-1.978;2023-04-03T03:08:30;5.30;37.70
63289;DHT22;49412;48.162;-1.978;2023-04-03T03:10:56;5.50;36.60
63289;DHT22;49412;48.162;-1.978;2023-04-03T03:13:21;5.60;32.70
63289;DHT22;49412;48.162;-1.978;2023-04-03T03:15:47;5.60;29.00
63289;DHT22;49412;48.162;-1.978;2023-04-03T03:18:13;5.60;27.00
63289;DHT22;49412;48.162;-1.978;2023-04-03T03:20:38;5.60;26.00
63289;DHT22;49412;48.162;-1.978;2023-04-03T03:23:04;5.60;25.40
63289;DHT22;49412;48.162;-1.978;2023-04-03T03:25:29;5.60;26.10
63289;DHT22;49412;48.162;-1.978;2023-04-03T03:27:55;5.60;25.60
63289;DHT22;49412;48.162;-1.978;2023-04-03T03:30:20;5.60;26.80
63289;DHT22;49412;48.162;-1.978;2023-04-03T03:32:46;5.60;28.60
63289;DHT22;49412;48.162;-1.978;2023-04-03T03:35:12;5.70;27.80
63289;DHT22;49412;48.162;-1.978;2023-04-03T03:37:37;5.80;28.20
63289;DHT22;49412;48.162;-1.978;2023-04-03T03:40:03;5.90;28.10
63289;DHT22;49412;48.162;-1.978;2023-04-03T03:42:28;5.90;25.00
63289;DHT22;49412;48.162;-1.978;2023-04-03T03:44:54;6.00;26.10
63289;DHT22;49412;48.162;-1.978;2023-04-03T03:47:20;5.90;25.60
63289;DHT22;49412;48.162;-1.978;2023-04-03T03:49:46;6.00;28.60
63289;DHT22;49412;48.162;-1.978;2023-04-03T03:52:11;6.00;27.40
63289;DHT22;49412;48.162;-1.978;2023-04-03T03:54:37;6.10;25.80
63289;DHT22;49412;48.162;-1.978;2023-04-03T03:57:03;6.20;23.40
63289;DHT22;49412;48.162;-1.978;2023-04-03T03:59:29;6.20;23.60
63289;DHT22;49412;48.162;-1.978;2023-04-03T04:01:54;6.30;23.10
63289;DHT22;49412;48.162;-1.978;2023-04-03T04:04:20;6.30;21.70
63289;DHT22;49412;48.162;-1.978;2023-04-03T04:06:46;6.30;20.00
63289;DHT22;49412;48.162;-1.978;2023-04-03T04:09:11;6.40;21.20
63289;DHT22;49412;48.162;-1.978;2023-04-03T04:11:37;6.40;19.80
63289;DHT22;49412;48.162;-1.978;2023-04-03T04:14:05;6.40;20.30
63289;DHT22;49412;48.162;-1.978;2023-04-03T04:16:30;6.40;21.80
63289;DHT22;49412;48.162;-1.978;2023-04-03T04:18:56;6.50;23.30
63289;DHT22;49412;48.162;-1.978;2023-04-03T04:21:21;6.60;23.00
63289;DHT22;49412;48.162;-1.978;2023-04-03T04:23:47;6.60;23.50
63289;DHT22;49412;48.162;-1.978;2023-04-03T04:26:12;6.60;23.00
63289;DHT22;49412;48.162;-1.978;2023-04-03T04:28:38;6.60;25.60
63289;DHT22;49412;48.162;-1.978;2023-04-03T04:31:04;6.70;26.00
63289;DHT22;49412;48.162;-1.978;2023-04-03T04:33:29;6.80;24.80
63289;DHT22;49412;48.162;-1.978;2023-04-03T04:35:55;6.80;23.80
63289;DHT22;49412;48.162;-1.978;2023-04-03T04:38:21;6.90;24.90
63289;DHT22;49412;48.162;-1.978;2023-04-03T04:40:47;6.90;25.80
63289;DHT22;49412;48.162;-1.978;2023-04-03T04:43:12;6.80;23.40
63289;DHT22;49412;48.162;-1.978;2023-04-03T04:45:40;6.80;23.80
63289;DHT22;49412;48.162;-1.978;2023-04-03T04:48:05;6.60;26.90
63289;DHT22;49412;48.162;-1.978;2023-04-03T04:50:31;6.50;29.40
63289;DHT22;49412;48.162;-1.978;2023-04-03T04:52:56;6.40;28.50
63289;DHT22;49412;48.162;-1.978;2023-04-03T04:55:22;6.50;33.30
63289;DHT22;49412;48.162;-1.978;2023-04-03T04:57:48;6.60;27.20
63289;DHT22;49412;48.162;-1.978;2023-04-03T05:00:13;6.50;27.00
63289;DHT22;49412;48.162;-1.978;2023-04-03T05:02:39;6.50;27.00
63289;DHT22;49412;48.162;-1.978;2023-04-03T05:05:05;6.50;25.20
63289;DHT22;49412;48.162;-1.978;2023-04-03T05:07:31;6.50;24.50
63289;DHT22;49412;48.162;-1.978;2023-04-03T05:09:56;6.40;21.30
63289;DHT22;49412;48.162;-1.978;2023-04-03T05:12:22;6.10;22.30
63289;DHT22;49412;48.162;-1.978;2023-04-03T05:14:48;5.90;27.00
63289;DHT22;49412;48.162;-1.978;2023-04-03T05:17:13;5.70;30.50
63289;DHT22;49412;48.162;-1.978;2023-04-03T05:19:39;5.70;25.90
63289;DHT22;49412;48.162;-1.978;2023-04-03T05:22:04;5.70;24.90
63289;DHT22;49412;48.162;-1.978;2023-04-03T05:24:30;5.70;22.70
63289;DHT22;49412;48.162;-1.978;2023-04-03T05:26:56;5.70;20.80
63289;DHT22;49412;48.162;-1.978;2023-04-03T05:29:21;5.70;20.50
63289;DHT22;49412;48.162;-1.978;2023-04-03T05:31:48;5.70;18.20
63289;DHT22;49412;48.162;-1.978;2023-04-03T05:34:14;5.70;20.00
63289;DHT22;49412;48.162;-1.978;2023-04-03T05:36:40;5.80;18.00
63289;DHT22;49412;48.162;-1.978;2023-04-03T05:39:05;5.80;16.70
63289;DHT22;49412;48.162;-1.978;2023-04-03T05:41:31;5.80;14.60
63289;DHT22;49412;48.162;-1.978;2023-04-03T05:43:57;5.80;16.40
63289;DHT22;49412;48.162;-1.978;2023-04-03T05:46:22;5.80;12.80
63289;DHT22;49412;48.162;-1.978;2023-04-03T05:48:48;5.80;12.50
63289;DHT22;49412;48.162;-1.978;2023-04-03T05:51:15;5.70;14.30
63289;DHT22;49412;48.162;-1.978;2023-04-03T05:53:41;5.80;16.00
63289;DHT22;49412;48.162;-1.978;2023-04-03T05:56:07;5.80;17.40
63289;DHT22;49412;48.162;-1.978;2023-04-03T05:58:33;5.70;21.50
63289;DHT22;49412;48.162;-1.978;2023-04-03T06:00:58;5.70;20.30
63289;DHT22;49412;48.162;-1.978;2023-04-03T06:03:24;5.70;22.20
63289;DHT22;49412;48.162;-1.978;2023-04-03T06:05:50;5.70;18.80
63289;DHT22;49412;48.162;-1.978;2023-04-03T06:08:16;5.60;20.50
63289;DHT22;49412;48.162;-1.978;2023-04-03T06:10:41;5.60;23.00
63289;DHT22;49412;48.162;-1.978;2023-04-03T06:13:07;5.60;19.20
63289;DHT22;49412;48.162;-1.978;2023-04-03T06:15:33;5.70;17.40
63289;DHT22;49412;48.162;-1.978;2023-04-03T06:17:59;5.80;12.60
63289;DHT22;49412;48.162;-1.978;2023-04-03T06:20:25;5.90;9.10
63289;DHT22;49412;48.162;-1.978;2023-04-03T06:22:51;5.90;10.90
63289;DHT22;49412;48.162;-1.978;2023-04-03T06:25:16;6.00;7.30
63289;DHT22;49412;48.162;-1.978;2023-04-03T06:27:44;6.30;8.20
63289;DHT22;49412;48.162;-1.978;2023-04-03T06:30:10;6.40;4.40
63289;DHT22;49412;48.162;-1.978;2023-04-03T06:32:36;6.50;1.20
63289;DHT22;49412;48.162;-1.978;2023-04-03T06:35:01;6.40;1.00
63289;DHT22;49412;48.162;-1.978;2023-04-03T06:37:27;6.40;1.00
63289;DHT22;49412;48.162;-1.978;2023-04-03T06:39:54;6.50;1.00
63289;DHT22;49412;48.162;-1.978;2023-04-03T06:42:20;6.30;1.00
63289;DHT22;49412;48.162;-1.978;2023-04-03T06:44:46;6.40;1.00
63289;DHT22;49412;48.162;-1.978;2023-04-03T06:47:13;6.50;1.00
63289;DHT22;49412;48.162;-1.978;2023-04-03T06:49:39;6.80;1.00
63289;DHT22;49412;48.162;-1.978;2023-04-03T06:52:05;6.70;1.00
63289;DHT22;49412;48.162;-1.978;2023-04-03T06:54:31;6.80;1.00
63289;DHT22;49412;48.162;-1.978;2023-04-03T06:56:57;6.70;1.00
63289;DHT22;49412;48.162;-1.978;2023-04-03T06:59:23;6.80;1.00
63289;DHT22;49412;48.162;-1.978;2023-04-03T07:01:48;7.10;1.00
63289;DHT22;49412;48.162;-1.978;2023-04-03T07:04:14;7.00;1.00
63289;DHT22;49412;48.162;-1.978;2023-04-03T07:06:40;7.00;1.00
63289;DHT22;49412;48.162;-1.978;2023-04-03T07:09:07;7.00;1.00
63289;DHT22;49412;48.162;-1.978;2023-04-03T07:11:32;7.00;1.00
63289;DHT22;49412;48.162;-1.978;2023-04-03T07:13:58;6.90;1.00
63289;DHT22;49412;48.162;-1.978;2023-04-03T07:16:24;6.90;1.00
63289;DHT22;49412;48.162;-1.978;2023-04-03T07:18:49;6.80;1.00
63289;DHT22;49412;48.162;-1.978;2023-04-03T07:21:15;6.90;1.00
63289;DHT22;49412;48.162;-1.978;2023-04-03T07:23:41;7.00;1.00
63289;DHT22;49412;48.162;-1.978;2023-04-03T07:26:06;7.10;1.00
63289;DHT22;49412;48.162;-1.978;2023-04-03T07:28:33;7.20;1.00
63289;DHT22;49412;48.162;-1.978;2023-04-03T07:31:03;7.20;1.00
63289;DHT22;49412;48.162;-1.978;2023-04-03T07:33:29;7.20;1.00
63289;DHT22;49412;48.162;-1.978;2023-04-03T07:35:54;7.20;1.00
63289;DHT22;49412;48.162;-1.978;2023-04-03T07:38:20;7.20;1.00
63289;DHT22;49412;48.162;-1.978;2023-04-03T07:40:47;7.10;1.00
63289;DHT22;49412;48.162;-1.978;2023-04-03T07:43:13;6.90;1.00
63289;DHT22;49412;48.162;-1.978;2023-04-03T07:45:39;6.80;1.00
63289;DHT22;49412;48.162;-1.978;2023-04-03T07:48:04;6.90;1.00
63289;DHT22;49412;48.162;-1.978;2023-04-03T07:50:30;6.90;1.00
63289;DHT22;49412;48.162;-1.978;2023-04-03T07:52:56;7.00;1.00
63289;DHT22;49412;48.162;-1.978;2023-04-03T07:55:23;7.30;1.00
63289;DHT22;49412;48.162;-1.978;2023-04-03T07:57:48;7.40;1.00
63289;DHT22;49412;48.162;-1.978;2023-04-03T08:00:14;7.30;1.00
63289;DHT22;49412;48.162;-1.978;2023-04-03T08:02:43;7.10;1.00
63289;DHT22;49412;48.162;-1.978;2023-04-03T08:05:09;7.10;1.00
63289;DHT22;49412;48.162;-1.978;2023-04-03T08:07:36;7.30;1.00
63289;DHT22;49412;48.162;-1.978;2023-04-03T08:10:02;7.40;1.00
63289;DHT22;49412;48.162;-1.978;2023-04-03T08:12:27;7.40;1.00
63289;DHT22;49412;48.162;-1.978;2023-04-03T08:14:55;7.30;1.00
63289;DHT22;49412;48.162;-1.978;2023-04-03T08:17:21;7.40;1.00
63289;DHT22;49412;48.162;-1.978;2023-04-03T08:19:47;7.30;1.00
63289;DHT22;49412;48.162;-1.978;2023-04-03T08:22:12;7.50;1.00
63289;DHT22;49412;48.162;-1.978;2023-04-03T08:24:38;7.60;1.00
63289;DHT22;49412;48.162;-1.978;2023-04-03T08:27:03;7.60;1.00
63289;DHT22;49412;48.162;-1.978;2023-04-03T08:29:29;7.70;1.00
63289;DHT22;49412;48.162;-1.978;2023-04-03T08:31:54;7.90;1.00
63289;DHT22;49412;48.162;-1.978;2023-04-03T08:34:20;8.00;1.00
63289;DHT22;49412;48.162;-1.978;2023-04-03T08:36:46;8.20;1.00
63289;DHT22;49412;48.162;-1.978;2023-04-03T08:39:12;8.30;1.00
63289;DHT22;49412;48.162;-1.978;2023-04-03T08:41:38;8.20;1.00
63289;DHT22;49412;48.162;-1.978;2023-04-03T08:51:54;8.70;1.00
63289;DHT22;49412;48.162;-1.978;2023-04-03T08:54:30;8.80;1.00
63289;DHT22;49412;48.162;-1.978;2023-04-03T08:56:57;8.70;1.00
63289;DHT22;49412;48.162;-1.978;2023-04-03T08:59:25;9.00;1.00
63289;DHT22;49412;48.162;-1.978;2023-04-03T09:01:51;8.80;1.00
63289;DHT22;49412;48.162;-1.978;2023-04-03T09:04:17;9.00;1.00
63289;DHT22;49412;48.162;-1.978;2023-04-03T09:06:45;9.10;1.00
63289;DHT22;49412;48.162;-1.978;2023-04-03T09:09:28;9.40;1.00
63289;DHT22;49412;48.162;-1.978;2023-04-03T09:14:53;9.40;1.00
63289;DHT22;49412;48.162;-1.978;2023-04-03T09:24:38;10.40;1.00
63289;DHT22;49412;48.162;-1.978;2023-04-03T09:27:05;10.70;1.00
63289;DHT22;49412;48.162;-1.978;2023-04-03T09:29:33;11.10;1.00
63289;DHT22;49412;48.162;-1.978;2023-04-03T09:32:02;11.50;1.00
63289;DHT22;49412;48.162;-1.978;2023-04-03T09:34:36;11.50;1.00
63289;DHT22;49412;48.162;-1.978;2023-04-03T09:37:05;11.20;1.00
63289;DHT22;49412;48.162;-1.978;2023-04-03T09:39:53;10.90;1.00
63289;DHT22;49412;48.162;-1.978;2023-04-03T09:42:23;10.50;1.00
63289;DHT22;49412;48.162;-1.978;2023-04-03T09:44:59;10.50;1.00
63289;DHT22;49412;48.162;-1.978;2023-04-03T09:47:29;10.70;1.00
63289;DHT22;49412;48.162;-1.978;2023-04-03T09:52:36;10.30;1.00
63289;DHT22;49412;48.162;-1.978;2023-04-03T09:55:08;10.50;1.00
63289;DHT22;49412;48.162;-1.978;2023-04-03T09:57:38;10.50;1.00
63289;DHT22;49412;48.162;-1.978;2023-04-03T10:00:04;10.40;1.00
63289;DHT22;49412;48.162;-1.978;2023-04-03T10:02:35;10.30;1.00
63289;DHT22;49412;48.162;-1.978;2023-04-03T10:05:01;10.40;1.00
63289;DHT22;49412;48.162;-1.978;2023-04-03T10:09:56;10.90;1.00
63289;DHT22;49412;48.162;-1.978;2023-04-03T10:12:22;11.60;1.00
63289;DHT22;49412;48.162;-1.978;2023-04-03T10:14:55;11.70;1.00
63289;DHT22;49412;48.162;-1.978;2023-04-03T10:22:20;11.50;1.00
63289;DHT22;49412;48.162;-1.978;2023-04-03T10:30:34;11.80;1.00
63289;DHT22;49412;48.162;-1.978;2023-04-03T10:35:49;11.90;1.00
63289;DHT22;49412;48.162;-1.978;2023-04-03T10:38:20;12.10;1.00
63289;DHT22;49412;48.162;-1.978;2023-04-03T10:40:55;11.80;1.00
63289;DHT22;49412;48.162;-1.978;2023-04-03T10:45:53;11.90;1.00
63289;DHT22;49412;48.162;-1.978;2023-04-03T10:56:15;12.40;1.00
63289;DHT22;49412;48.162;-1.978;2023-04-03T10:58:44;12.90;1.00
63289;DHT22;49412;48.162;-1.978;2023-04-03T11:01:14;12.80;1.00
63289;DHT22;49412;48.162;-1.978;2023-04-03T11:03:45;12.80;1.00
63289;DHT22;49412;48.162;-1.978;2023-04-03T11:06:13;12.80;1.00
63289;DHT22;49412;48.162;-1.978;2023-04-03T11:11:16;15.40;1.00
63289;DHT22;49412;48.162;-1.978;2023-04-03T11:16:27;16.10;1.00
63289;DHT22;49412;48.162;-1.978;2023-04-03T11:21:28;18.40;1.00
63289;DHT22;49412;48.162;-1.978;2023-04-03T11:23:56;18.80;1.00
63289;DHT22;49412;48.162;-1.978;2023-04-03T11:26:24;20.80;1.00
63289;DHT22;49412;48.162;-1.978;2023-04-03T11:28:53;19.20;1.00
63289;DHT22;49412;48.162;-1.978;2023-04-03T11:36:47;26.50;1.00
63289;DHT22;49412;48.162;-1.978;2023-04-03T11:42:16;26.10;1.00
63289;DHT22;49412;48.162;-1.978;2023-04-03T11:44:42;25.30;1.00
63289;DHT22;49412;48.162;-1.978;2023-04-03T11:47:09;29.10;1.00
63289;DHT22;49412;48.162;-1.978;2023-04-03T11:58:02;33.70;1.00
63289;DHT22;49412;48.162;-1.978;2023-04-03T12:05:47;35.00;1.00
63289;DHT22;49412;48.162;-1.978;2023-04-03T12:08:29;34.60;1.00
63289;DHT22;49412;48.162;-1.978;2023-04-03T12:11:41;34.40;1.00
63289;DHT22;49412;48.162;-1.978;2023-04-03T12:16:25;35.60;1.00
63289;DHT22;49412;48.162;-1.978;2023-04-03T12:29:13;35.80;1.00
63289;DHT22;49412;48.162;-1.978;2023-04-03T12:31:42;36.10;1.00
63289;DHT22;49412;48.162;-1.978;2023-04-03T12:34:24;37.90;1.00
63289;DHT22;49412;48.162;-1.978;2023-04-03T12:36:58;37.60;1.00
63289;DHT22;49412;48.162;-1.978;2023-04-03T12:39:36;37.70;1.00
63289;DHT22;49412;48.162;-1.978;2023-04-03T12:42:31;37.20;1.00
63289;DHT22;49412;48.162;-1.978;2023-04-03T12:45:30;36.00;1.00
63289;DHT22;49412;48.162;-1.978;2023-04-03T12:47:51;36.70;1.00
63289;DHT22;49412;48.162;-1.978;2023-04-03T12:50:38;36.60;1.00
63289;DHT22;49412;48.162;-1.978;2023-04-03T12:53:06;37.40;1.00
63289;DHT22;49412;48.162;-1.978;2023-04-03T12:55:32;37.10;1.00
63289;DHT22;49412;48.162;-1.978;2023-04-03T12:58:13;38.50;1.00
63289;DHT22;49412;48.162;-1.978;2023-04-03T13:00:39;37.80;1.00
63289;DHT22;49412;48.162;-1.978;2023-04-03T13:03:05;38.90;1.00
63289;DHT22;49412;48.162;-1.978;2023-04-03T13:05:31;38.90;1.00
63289;DHT22;49412;48.162;-1.978;2023-04-03T13:08:02;37.90;1.00
63289;DHT22;49412;48.162;-1.978;2023-04-03T13:10:28;36.50;1.00
63289;DHT22;49412;48.162;-1.978;2023-04-03T13:12:55;37.30;1.00
63289;DHT22;49412;48.162;-1.978;2023-04-03T13:17:48;38.80;1.00
63289;DHT22;49412;48.162;-1.978;2023-04-03T13:25:13;37.70;1.00
63289;DHT22;49412;48.162;-1.978;2023-04-03T13:27:39;36.80;1.00
63289;DHT22;49412;48.162;-1.978;2023-04-03T13:30:29;36.00;1.00
63289;DHT22;49412;48.162;-1.978;2023-04-03T13:32:57;36.90;1.00
63289;DHT22;49412;48.162;-1.978;2023-04-03T13:35:25;36.80;1.00
63289;DHT22;49412;48.162;-1.978;2023-04-03T13:37:55;36.70;1.00
63289;DHT22;49412;48.162;-1.978;2023-04-03T13:40:21;36.50;1.00
63289;DHT22;49412;48.162;-1.978;2023-04-03T13:42:57;36.20;1.00
63289;DHT22;49412;48.162;-1.978;2023-04-03T13:45:24;37.80;1.00
63289;DHT22;49412;48.162;-1.978;2023-04-03T13:47:54;39.80;1.00
63289;DHT22;49412;48.162;-1.978;2023-04-03T13:50:21;40.70;1.00
63289;DHT22;49412;48.162;-1.978;2023-04-03T13:52:49;39.00;1.00
63289;DHT22;49412;48.162;-1.978;2023-04-03T13:55:26;39.90;1.00
63289;DHT22;49412;48.162;-1.978;2023-04-03T13:58:00;38.70;1.00
63289;DHT22;49412;48.162;-1.978;2023-04-03T14:00:28;40.10;1.00
63289;DHT22;49412;48.162;-1.978;2023-04-03T14:02:54;38.60;1.00
63289;DHT22;49412;48.162;-1.978;2023-04-03T14:05:22;36.20;1.00
63289;DHT22;49412;48.162;-1.978;2023-04-03T14:07:48;34.60;1.00
63289;DHT22;49412;48.162;-1.978;2023-04-03T14:10:14;33.40;1.00
63289;DHT22;49412;48.162;-1.978;2023-04-03T14:12:40;33.40;1.00
63289;DHT22;49412;48.162;-1.978;2023-04-03T14:15:19;33.40;1.00
63289;DHT22;49412;48.162;-1.978;2023-04-03T14:17:45;32.30;1.00
63289;DHT22;49412;48.162;-1.978;2023-04-03T14:20:15;32.70;1.00
63289;DHT22;49412;48.162;-1.978;2023-04-03T14:22:41;33.40;1.00
63289;DHT22;49412;48.162;-1.978;2023-04-03T14:25:07;33.10;1.00
63289;DHT22;49412;48.162;-1.978;2023-04-03T14:27:37;32.50;1.00
63289;DHT22;49412;48.162;-1.978;2023-04-03T14:30:04;32.60;1.00
63289;DHT22;49412;48.162;-1.978;2023-04-03T14:32:30;33.50;1.00
63289;DHT22;49412;48.162;-1.978;2023-04-03T14:34:56;33.80;1.00
63289;DHT22;49412;48.162;-1.978;2023-04-03T14:37:24;32.40;1.00
63289;DHT22;49412;48.162;-1.978;2023-04-03T14:39:51;32.60;1.00
63289;DHT22;49412;48.162;-1.978;2023-04-03T14:42:22;31.30;1.00
63289;DHT22;49412;48.162;-1.978;2023-04-03T14:44:48;33.00;1.00
63289;DHT22;49412;48.162;-1.978;2023-04-03T14:47:15;32.00;1.00
63289;DHT22;49412;48.162;-1.978;2023-04-03T14:49:41;31.40;1.00
63289;DHT22;49412;48.162;-1.978;2023-04-03T14:52:18;30.60;1.00
63289;DHT22;49412;48.162;-1.978;2023-04-03T14:54:44;30.20;1.00
63289;DHT22;49412;48.162;-1.978;2023-04-03T14:57:10;30.00;1.00
63289;DHT22;49412;48.162;-1.978;2023-04-03T14:59:37;30.20;1.00
63289;DHT22;49412;48.162;-1.978;2023-04-03T15:02:02;29.90;1.00
63289;DHT22;49412;48.162;-1.978;2023-04-03T15:04:32;29.70;1.00
63289;DHT22;49412;48.162;-1.978;2023-04-03T15:06:57;29.90;1.00
63289;DHT22;49412;48.162;-1.978;2023-04-03T15:09:24;30.50;1.00
63289;DHT22;49412;48.162;-1.978;2023-04-03T15:11:50;32.30;1.00
63289;DHT22;49412;48.162;-1.978;2023-04-03T15:14:16;32.60;1.00
63289;DHT22;49412;48.162;-1.978;2023-04-03T15:16:42;31.90;1.00
63289;DHT22;49412;48.162;-1.978;2023-04-03T15:19:08;31.90;1.00
63289;DHT22;49412;48.162;-1.978;2023-04-03T15:21:33;30.50;1.00
63289;DHT22;49412;48.162;-1.978;2023-04-03T15:23:59;29.10;1.00
63289;DHT22;49412;48.162;-1.978;2023-04-03T15:26:25;29.30;1.00
63289;DHT22;49412;48.162;-1.978;2023-04-03T15:28:50;28.90;1.00
63289;DHT22;49412;48.162;-1.978;2023-04-03T15:31:16;29.80;1.00
63289;DHT22;49412;48.162;-1.978;2023-04-03T15:33:42;29.80;1.00
63289;DHT22;49412;48.162;-1.978;2023-04-03T15:36:07;28.50;1.00
63289;DHT22;49412;48.162;-1.978;2023-04-03T15:38:33;28.30;1.00
63289;DHT22;49412;48.162;-1.978;2023-04-03T15:40:59;27.40;1.00
63289;DHT22;49412;48.162;-1.978;2023-04-03T15:43:24;28.00;1.00
63289;DHT22;49412;48.162;-1.978;2023-04-03T15:45:50;28.40;1.00
63289;DHT22;49412;48.162;-1.978;2023-04-03T15:48:16;28.70;1.00
63289;DHT22;49412;48.162;-1.978;2023-04-03T15:50:42;28.10;1.00
63289;DHT22;49412;48.162;-1.978;2023-04-03T15:53:08;28.50;1.00
63289;DHT22;49412;48.162;-1.978;2023-04-03T15:55:34;28.70;1.00
63289;DHT22;49412;48.162;-1.978;2023-04-03T15:58:00;28.10;1.00
63289;DHT22;49412;48.162;-1.978;2023-04-03T16:00:26;26.90;1.00
63289;DHT22;49412;48.162;-1.978;2023-04-03T16:02:57;26.40;1.00
63289;DHT22;49412;48.162;-1.978;2023-04-03T16:05:24;26.60;1.00
63289;DHT22;49412;48.162;-1.978;2023-04-03T16:07:50;25.50;1.00
63289;DHT22;49412;48.162;-1.978;2023-04-03T16:10:16;24.20;1.00
63289;DHT22;49412;48.162;-1.978;2023-04-03T16:12:42;23.20;1.00
63289;DHT22;49412;48.162;-1.978;2023-04-03T16:15:08;23.50;1.00
63289;DHT22;49412;48.162;-1.978;2023-04-03T16:17:35;23.80;1.00
63289;DHT22;49412;48.162;-1.978;2023-04-03T16:20:02;23.40;1.00
63289;DHT22;49412;48.162;-1.978;2023-04-03T16:22:28;22.70;1.00
63289;DHT22;49412;48.162;-1.978;2023-04-03T16:24:54;21.90;1.00
63289;DHT22;49412;48.162;-1.978;2023-04-03T16:27:20;21.40;1.00
63289;DHT22;49412;48.162;-1.978;2023-04-03T16:29:46;20.70;1.00
63289;DHT22;49412;48.162;-1.978;2023-04-03T16:32:12;20.30;1.00
63289;DHT22;49412;48.162;-1.978;2023-04-03T16:34:38;20.00;1.00
63289;DHT22;49412;48.162;-1.978;2023-04-03T16:37:05;20.50;1.00
63289;DHT22;49412;48.162;-1.978;2023-04-03T16:39:31;20.60;1.00
63289;DHT22;49412;48.162;-1.978;2023-04-03T16:41:59;20.40;1.00
63289;DHT22;49412;48.162;-1.978;2023-04-03T16:44:24;19.80;1.00
63289;DHT22;49412;48.162;-1.978;2023-04-03T16:46:50;20.10;1.00
63289;DHT22;49412;48.162;-1.978;2023-04-03T16:49:16;19.90;1.00
63289;DHT22;49412;48.162;-1.978;2023-04-03T16:51:41;20.20;1.00
63289;DHT22;49412;48.162;-1.978;2023-04-03T16:54:07;20.40;1.00
63289;DHT22;49412;48.162;-1.978;2023-04-03T16:56:34;20.00;1.00
63289;DHT22;49412;48.162;-1.978;2023-04-03T16:59:00;19.60;1.00
63289;DHT22;49412;48.162;-1.978;2023-04-03T17:01:26;20.00;1.00
63289;DHT22;49412;48.162;-1.978;2023-04-03T17:03:51;20.70;1.00
63289;DHT22;49412;48.162;-1.978;2023-04-03T17:06:18;20.80;1.00
63289;DHT22;49412;48.162;-1.978;2023-04-03T17:08:45;21.40;1.00
63289;DHT22;49412;48.162;-1.978;2023-04-03T17:11:11;21.70;1.00
63289;DHT22;49412;48.162;-1.978;2023-04-03T17:13:36;21.90;1.00
63289;DHT22;49412;48.162;-1.978;2023-04-03T17:16:02;21.30;1.00
63289;DHT22;49412;48.162;-1.978;2023-04-03T17:18:30;19.80;1.00
63289;DHT22;49412;48.162;-1.978;2023-04-03T17:20:56;18.80;1.00